Time;durP1;ratioP1;P1;durP2;ratioP2;P2;SDS_P1;SDS_P2;PMS_P1;PMS_P2;Temp;Humidity;BMP_temperature;BMP_pressure;BME280_temperature;BME280_humidity;BME280_pressure;Samples;Min_cycle;Max_cycle;Signal;HPM_P1;HPM_P2
2021/10/25 00:00:27;;;;;;;13.07;5.82;;;;;;;;;;5033090;28;20029;-51
2021/10/25 00:02:53;;;;;;;9.10;4.68;;;;;;;;;;5033640;28;20412;-51
2021/10/25 00:05:19;;;;;;;11.82;4.22;;;;;;;;;;5032034;28;20029;-51
2021/10/25 00:07:46;;;;;;;9.93;4.57;;;;;;;;;;5032895;28;20044;-51
2021/10/25 00:10:12;;;;;;;8.30;5.22;;;;;;;;;;5033328;28;20108;-51
2021/10/25 00:12:40;;;;;;;11.48;4.88;;;;;;;;;;5033196;28;20340;-51
2021/10/25 00:15:07;;;;;;;10.90;5.47;;;;;;;;;;5032423;28;20025;-51
2021/10/25 00:17:33;;;;;;;11.93;5.55;;;;;;;;;;5033306;28;20061;-51
2021/10/25 00:19:59;;;;;;;13.00;5.30;;;;;;;;;;5033298;28;20061;-51
2021/10/25 00:22:25;;;;;;;9.65;5.25;;;;;;;;;;5032773;28;20443;-51
2021/10/25 00:24:51;;;;;;;9.25;4.80;;;;;;;;;;5032561;28;20048;-51
2021/10/25 00:27:32;;;;;;;13.13;5.45;;;;;;;;;;5032842;28;20448;-51
2021/10/25 00:29:58;;;;;;;9.73;5.15;;;;;;;;;;5032423;28;20432;-51
2021/10/25 00:32:24;;;;;;;13.75;5.25;;;;;;;;;;5032553;28;20029;-51
2021/10/25 00:34:50;;;;;;;12.38;5.35;;;;;;;;;;5030693;28;20096;-51
2021/10/25 00:37:16;;;;;;;9.07;5.13;;;;;;;;;;5031790;28;20112;-51
2021/10/25 00:39:42;;;;;;;11.70;5.35;;;;;;;;;;5033026;28;20451;-51
2021/10/25 00:42:08;;;;;;;12.00;5.82;;;;;;;;;;5031615;28;20079;-51
2021/10/25 00:44:34;;;;;;;11.25;5.20;;;;;;;;;;5030847;28;20116;-51
2021/10/25 00:47:00;;;;;;;16.92;6.28;;;;;;;;;;5032535;28;20033;-51
2021/10/25 00:49:26;;;;;;;12.52;5.00;;;;;;;;;;5032903;28;20402;-51
2021/10/25 00:51:54;;;;;;;10.98;5.18;;;;;;;;;;5032375;28;20458;-51
2021/10/25 00:54:21;;;;;;;11.60;5.28;;;;;;;;;;5032374;28;20022;-51
2021/10/25 00:56:48;;;;;;;11.85;5.10;;;;;;;;;;5031989;28;20033;-51
2021/10/25 00:59:14;;;;;;;11.52;5.65;;;;;;;;;;5032830;28;20502;-51
2021/10/25 01:01:42;;;;;;;12.98;5.32;;;;;;;;;;5032432;28;20443;-50
2021/10/25 01:04:10;;;;;;;8.80;5.13;;;;;;;;;;5032090;28;20030;-51
2021/10/25 01:06:37;;;;;;;10.43;5.18;;;;;;;;;;5032772;28;20367;-51
2021/10/25 01:09:03;;;;;;;12.63;4.97;;;;;;;;;;5032769;28;20026;-51
2021/10/25 01:11:31;;;;;;;10.48;5.00;;;;;;;;;;5032161;28;20036;-51
2021/10/25 01:13:58;;;;;;;10.63;4.95;;;;;;;;;;5031972;28;20060;-51
2021/10/25 01:16:26;;;;;;;9.63;5.63;;;;;;;;;;5032859;28;20108;-51
2021/10/25 01:18:54;;;;;;;10.65;4.68;;;;;;;;;;5032375;28;20029;-51
2021/10/25 01:21:20;;;;;;;8.18;4.20;;;;;;;;;;5031059;28;20510;-51
2021/10/25 01:23:46;;;;;;;11.80;5.80;;;;;;;;;;5031755;28;20112;-51
2021/10/25 01:26:12;;;;;;;9.98;4.85;;;;;;;;;;5032182;28;20037;-51
2021/10/25 01:28:39;;;;;;;11.13;5.63;;;;;;;;;;5032602;28;20029;-51
2021/10/25 01:31:06;;;;;;;11.65;5.50;;;;;;;;;;5032406;28;20034;-51
2021/10/25 01:33:33;;;;;;;17.17;6.32;;;;;;;;;;5031850;28;20033;-51
2021/10/25 01:36:00;;;;;;;9.98;5.47;;;;;;;;;;5032245;28;20451;-51
2021/10/25 01:38:26;;;;;;;13.93;5.65;;;;;;;;;;5031605;28;20025;-51
2021/10/25 01:40:51;;;;;;;13.70;4.97;;;;;;;;;;5031469;28;20029;-51
2021/10/25 01:43:18;;;;;;;14.63;6.32;;;;;;;;;;5031930;28;20040;-51
2021/10/25 01:45:47;;;;;;;11.43;6.07;;;;;;;;;;5031841;28;20108;-51
2021/10/25 01:48:14;;;;;;;9.65;5.25;;;;;;;;;;5032500;28;20124;-51
2021/10/25 01:50:40;;;;;;;11.23;4.80;;;;;;;;;;5035457;28;20053;-51
2021/10/25 01:53:06;;;;;;;7.57;4.55;;;;;;;;;;5035819;28;20075;-51
2021/10/25 01:55:32;;;;;;;15.63;4.80;;;;;;;;;;5034874;28;20435;-51
2021/10/25 01:57:59;;;;;;;9.32;4.40;;;;;;;;;;5035618;28;20021;-51
2021/10/25 02:00:25;;;;;;;10.65;5.63;;;;;;;;;;5035394;28;20439;-51
2021/10/25 02:02:51;;;;;;;6.57;3.85;;;;;;;;;;5035774;28;20112;-51
2021/10/25 02:05:17;;;;;;;11.10;4.72;;;;;;;;;;5034781;28;20025;-51
2021/10/25 02:07:44;;;;;;;12.80;5.13;;;;;;;;;;5035344;28;20034;-51
2021/10/25 02:10:11;;;;;;;7.85;4.10;;;;;;;;;;5035525;28;20040;-51
2021/10/25 02:12:37;;;;;;;12.48;5.10;;;;;;;;;;5035075;28;20036;-51
2021/10/25 02:15:03;;;;;;;11.80;5.45;;;;;;;;;;5034671;28;20021;-50
2021/10/25 02:17:30;;;;;;;9.20;4.93;;;;;;;;;;5035308;28;20113;-51
2021/10/25 02:19:56;;;;;;;10.02;4.60;;;;;;;;;;5035237;28;20075;-51
2021/10/25 02:22:23;;;;;;;13.18;5.38;;;;;;;;;;5035469;28;20029;-51
2021/10/25 02:24:50;;;;;;;8.85;4.55;;;;;;;;;;5034574;28;20026;-51
2021/10/25 02:27:16;;;;;;;12.75;5.72;;;;;;;;;;5034891;28;20037;-51
2021/10/25 02:29:42;;;;;;;11.07;4.90;;;;;;;;;;5035284;28;20025;-52
2021/10/25 02:32:09;;;;;;;12.80;5.35;;;;;;;;;;5034994;28;20025;-51
2021/10/25 02:34:35;;;;;;;9.93;4.57;;;;;;;;;;5034039;28;20029;-51
2021/10/25 02:37:02;;;;;;;10.95;5.00;;;;;;;;;;5034988;28;20530;-51
2021/10/25 02:39:28;;;;;;;9.50;4.45;;;;;;;;;;5035256;28;20071;-51
2021/10/25 02:41:55;;;;;;;9.15;4.82;;;;;;;;;;5034094;28;20030;-51
2021/10/25 02:44:22;;;;;;;10.07;4.90;;;;;;;;;;5033490;28;20149;-51
2021/10/25 02:46:48;;;;;;;8.55;5.40;;;;;;;;;;5034843;28;20054;-51
2021/10/25 02:49:14;;;;;;;9.05;4.32;;;;;;;;;;5034666;28;20061;-51
2021/10/25 02:51:40;;;;;;;9.27;5.35;;;;;;;;;;5040968;28;20029;-51
2021/10/25 02:54:06;;;;;;;9.23;4.55;;;;;;;;;;5053484;28;20423;-51
2021/10/25 02:56:32;;;;;;;10.05;4.40;;;;;;;;;;5054142;28;20453;-51
2021/10/25 02:58:58;;;;;;;6.93;3.97;;;;;;;;;;5054588;28;20082;-51
2021/10/25 03:01:25;;;;;;;12.68;5.25;;;;;;;;;;5053976;28;20025;-51
2021/10/25 03:03:51;;;;;;;12.13;4.85;;;;;;;;;;5053601;28;20040;-51
2021/10/25 03:06:17;;;;;;;12.40;5.95;;;;;;;;;;5054227;28;20021;-51
2021/10/25 03:08:43;;;;;;;10.65;5.65;;;;;;;;;;5053835;28;20028;-51
2021/10/25 03:11:09;;;;;;;11.93;5.00;;;;;;;;;;5054197;28;20405;-51
2021/10/25 03:13:35;;;;;;;13.40;5.22;;;;;;;;;;5053816;28;20032;-51
2021/10/25 03:16:01;;;;;;;9.23;5.10;;;;;;;;;;5054330;28;20029;-51
2021/10/25 03:18:27;;;;;;;14.15;5.38;;;;;;;;;;5043597;28;20045;-51
2021/10/25 03:20:53;;;;;;;11.52;5.45;;;;;;;;;;5045409;28;20055;-51
2021/10/25 03:23:20;;;;;;;9.98;4.43;;;;;;;;;;5053706;28;20402;-51
2021/10/25 03:25:47;;;;;;;12.35;4.93;;;;;;;;;;5052794;28;20029;-51
2021/10/25 03:28:13;;;;;;;13.38;4.72;;;;;;;;;;5037195;28;20407;-51
2021/10/25 03:30:39;;;;;;;10.63;4.65;;;;;;;;;;5033798;28;20032;-51
2021/10/25 03:33:06;;;;;;;12.60;5.85;;;;;;;;;;5032183;28;20049;-51
2021/10/25 03:35:32;;;;;;;11.82;4.50;;;;;;;;;;5032816;28;20108;-51
2021/10/25 03:37:58;;;;;;;10.23;5.13;;;;;;;;;;5033870;28;20033;-51
2021/10/25 03:40:26;;;;;;;10.60;5.03;;;;;;;;;;5033692;28;20029;-51
2021/10/25 03:42:54;;;;;;;12.02;5.07;;;;;;;;;;5033415;28;20035;-51
2021/10/25 03:45:30;;;;;;;11.98;4.47;;;;;;;;;;5032881;28;20017;-51
2021/10/25 03:50:29;;;;;;;8.73;4.90;;;;;;;;;;5033538;28;20033;-51
2021/10/25 04:30:32;;;;;;;8.80;4.75;;;;;;;;;;5033103;28;20132;-51
2021/10/25 04:32:58;;;;;;;8.90;5.05;;;;;;;;;;5032799;28;20048;-51
2021/10/25 04:35:24;;;;;;;8.75;5.05;;;;;;;;;;5032538;28;20025;-51
2021/10/25 04:37:51;;;;;;;12.93;4.65;;;;;;;;;;5032812;28;20152;-51
2021/10/25 04:40:17;;;;;;;9.93;5.22;;;;;;;;;;5032485;28;20479;-51
2021/10/25 04:42:43;;;;;;;11.38;5.43;;;;;;;;;;5032914;28;20398;-51
2021/10/25 04:45:10;;;;;;;6.55;3.67;;;;;;;;;;5032139;28;20032;-51
2021/10/25 04:47:36;;;;;;;9.05;4.88;;;;;;;;;;5032572;28;20033;-51
2021/10/25 04:50:03;;;;;;;10.48;4.20;;;;;;;;;;5032639;28;20360;-51
2021/10/25 04:52:29;;;;;;;9.30;4.72;;;;;;;;;;5032878;28;20032;-51
2021/10/25 04:54:55;;;;;;;9.52;5.05;;;;;;;;;;5032012;28;20025;-51
2021/10/25 04:57:21;;;;;;;13.23;5.00;;;;;;;;;;5032618;28;20037;-51
2021/10/25 04:59:47;;;;;;;11.95;5.07;;;;;;;;;;5032591;28;20029;-50
2021/10/25 05:02:14;;;;;;;8.18;4.35;;;;;;;;;;5032262;28;20025;-51
2021/10/25 05:04:40;;;;;;;15.43;5.78;;;;;;;;;;5032223;28;20369;-51
2021/10/25 05:07:06;;;;;;;11.52;5.30;;;;;;;;;;5032269;28;20029;-51
2021/10/25 05:09:33;;;;;;;10.43;4.90;;;;;;;;;;5033019;28;20029;-51
2021/10/25 05:11:59;;;;;;;9.48;4.90;;;;;;;;;;5032625;28;20026;-51
2021/10/25 05:14:25;;;;;;;7.97;4.43;;;;;;;;;;5031966;28;20350;-52
2021/10/25 05:16:51;;;;;;;7.72;4.60;;;;;;;;;;5032656;28;20080;-51
2021/10/25 05:19:17;;;;;;;8.95;4.88;;;;;;;;;;5032914;28;20045;-51
2021/10/25 05:21:43;;;;;;;10.15;4.88;;;;;;;;;;5031997;28;20029;-51
2021/10/25 05:24:09;;;;;;;8.73;4.53;;;;;;;;;;5034693;28;20056;-51
2021/10/25 05:26:36;;;;;;;12.38;4.80;;;;;;;;;;5036684;28;20033;-52
2021/10/25 05:29:02;;;;;;;11.95;6.07;;;;;;;;;;5035701;28;20526;-51
2021/10/25 05:31:28;;;;;;;10.73;4.97;;;;;;;;;;5036387;28;20029;-51
2021/10/25 05:33:54;;;;;;;17.63;6.10;;;;;;;;;;5035174;28;20586;-51
2021/10/25 05:36:20;;;;;;;10.25;4.95;;;;;;;;;;5036249;28;20026;-51
2021/10/25 05:38:47;;;;;;;11.65;5.78;;;;;;;;;;5035510;28;20032;-52
2021/10/25 05:41:14;;;;;;;8.00;4.20;;;;;;;;;;5036194;28;20033;-50
2021/10/25 05:43:42;;;;;;;10.40;4.75;;;;;;;;;;5035120;28;20034;-52
2021/10/25 05:46:09;;;;;;;14.68;5.10;;;;;;;;;;5035826;28;20052;-52
2021/10/25 05:48:35;;;;;;;10.55;5.05;;;;;;;;;;5035804;28;20355;-51
2021/10/25 05:51:02;;;;;;;15.30;5.25;;;;;;;;;;5035844;28;20037;-51
2021/10/25 05:53:29;;;;;;;10.88;5.45;;;;;;;;;;5035578;28;20037;-52
2021/10/25 05:55:56;;;;;;;10.10;5.07;;;;;;;;;;5035801;28;20017;-52
2021/10/25 05:58:23;;;;;;;10.48;4.53;;;;;;;;;;5036048;28;20037;-51
2021/10/25 06:03:22;;;;;;;10.18;4.68;;;;;;;;;;5035156;28;20379;-51
2021/10/25 06:05:48;;;;;;;15.40;6.20;;;;;;;;;;5034942;28;20044;-51
2021/10/25 06:08:15;;;;;;;9.15;4.88;;;;;;;;;;5035626;28;20430;-51
2021/10/25 06:10:41;;;;;;;11.68;5.35;;;;;;;;;;5035742;28;20021;-52
2021/10/25 06:13:10;;;;;;;16.40;5.53;;;;;;;;;;5035585;28;20029;-51
2021/10/25 06:15:53;;;;;;;11.10;4.97;;;;;;;;;;5034449;28;20455;-51
2021/10/25 06:18:19;;;;;;;8.00;4.70;;;;;;;;;;5035355;28;20452;-52
2021/10/25 06:20:45;;;;;;;11.88;5.50;;;;;;;;;;5035501;28;20028;-51
2021/10/25 06:23:12;;;;;;;13.43;5.55;;;;;;;;;;5035089;28;20083;-51
2021/10/25 06:25:39;;;;;;;10.10;5.32;;;;;;;;;;5034440;28;20033;-51
2021/10/25 06:28:06;;;;;;;8.98;4.50;;;;;;;;;;5035145;28;20065;-52
2021/10/25 06:30:33;;;;;;;12.38;5.15;;;;;;;;;;5034473;28;20084;-51
2021/10/25 06:33:02;;;;;;;13.18;5.07;;;;;;;;;;5034938;28;20087;-51
2021/10/25 06:35:28;;;;;;;7.75;4.28;;;;;;;;;;5033661;28;20025;-52
2021/10/25 06:40:24;;;;;;;8.23;3.92;;;;;;;;;;5035036;28;20371;-52
2021/10/25 06:42:51;;;;;;;10.90;4.80;;;;;;;;;;5034968;28;20026;-52
2021/10/25 06:45:20;;;;;;;11.50;5.40;;;;;;;;;;5033670;28;20440;-52
2021/10/25 06:47:46;;;;;;;13.18;6.22;;;;;;;;;;5034605;28;20172;-51
2021/10/25 06:50:13;;;;;;;16.58;5.00;;;;;;;;;;5034721;28;20478;-52
2021/10/25 06:52:39;;;;;;;10.07;4.22;;;;;;;;;;5034580;28;20463;-51
2021/10/25 06:55:06;;;;;;;19.95;6.18;;;;;;;;;;5034024;28;20116;-51
2021/10/25 06:57:32;;;;;;;9.85;5.00;;;;;;;;;;5034361;28;20108;-51
2021/10/25 07:00:00;;;;;;;9.32;4.40;;;;;;;;;;5034524;28;20036;-52
2021/10/25 07:02:26;;;;;;;10.98;5.88;;;;;;;;;;5034658;28;20021;-52
2021/10/25 07:04:52;;;;;;;6.93;4.55;;;;;;;;;;5033907;28;20432;-53
2021/10/25 07:07:23;;;;;;;10.13;4.95;;;;;;;;;;5034361;28;20047;-52
2021/10/25 07:09:49;;;;;;;7.90;4.97;;;;;;;;;;5034688;28;20072;-52
2021/10/25 07:12:15;;;;;;;9.60;4.93;;;;;;;;;;5034580;28;20075;-52
2021/10/25 07:14:42;;;;;;;13.05;6.07;;;;;;;;;;5033526;28;20018;-52
2021/10/25 08:11:41;;;;;;;13.73;5.40;;;;;;;;;;5011111;28;20061;-52
2021/10/25 08:14:09;;;;;;;18.88;5.75;;;;;;;;;;5010159;28;20060;-52
2021/10/25 08:17:09;;;;;;;14.40;5.10;;;;;;;;;;5010945;28;20034;-52
2021/10/25 08:19:29;;;;;;;17.17;5.28;;;;;;;;;;5008030;28;20391;-52
2021/10/25 08:21:58;;;;;;;9.43;5.18;;;;;;;;;;5010822;28;20045;-52
2021/10/25 08:24:25;;;;;;;16.55;4.97;;;;;;;;;;5010188;28;20025;-52
2021/10/25 08:26:51;;;;;;;12.23;5.00;;;;;;;;;;5010706;28;20034;-52
2021/10/25 08:29:18;;;;;;;11.02;5.72;;;;;;;;;;5010507;28;20074;-52
2021/10/25 08:31:48;;;;;;;12.07;5.03;;;;;;;;;;5010777;28;20060;-51
2021/10/25 08:42:14;;;;;;;18.20;5.90;;;;;;;;;;5010738;28;20026;-52
2021/10/25 08:44:40;;;;;;;14.57;5.68;;;;;;;;;;5009684;28;20476;-52
2021/10/25 08:47:08;;;;;;;20.75;6.53;;;;;;;;;;5013985;28;20042;-51
2021/10/25 08:49:34;;;;;;;16.60;6.10;;;;;;;;;;5032540;28;20443;-52
2021/10/25 08:52:00;;;;;;;12.98;5.55;;;;;;;;;;5033055;28;20067;-52
2021/10/25 08:54:27;;;;;;;9.98;4.65;;;;;;;;;;5031511;28;20483;-53
2021/10/25 08:56:53;;;;;;;15.63;5.65;;;;;;;;;;5032882;28;20037;-52
2021/10/25 08:59:21;;;;;;;11.93;5.63;;;;;;;;;;5036327;28;20017;-52
2021/10/25 09:01:47;;;;;;;12.40;4.90;;;;;;;;;;5036714;28;20033;-52
2021/10/25 09:04:14;;;;;;;8.68;4.93;;;;;;;;;;5035823;28;20052;-53
2021/10/25 09:06:51;;;;;;;12.07;5.55;;;;;;;;;;5036445;28;20032;-52
2021/10/25 09:09:17;;;;;;;14.52;5.05;;;;;;;;;;5036929;28;20132;-52
2021/10/25 09:12:00;;;;;;;9.80;5.03;;;;;;;;;;5036567;28;20025;-52
2021/10/25 09:14:26;;;;;;;11.60;5.13;;;;;;;;;;5036067;28;20029;-52
2021/10/25 09:16:56;;;;;;;10.85;5.70;;;;;;;;;;5036807;28;20045;-52
2021/10/25 09:19:22;;;;;;;16.58;5.55;;;;;;;;;;5038100;28;20040;-52
2021/10/25 09:21:49;;;;;;;15.02;5.93;;;;;;;;;;5055073;28;20273;-52
2021/10/25 09:24:19;;;;;;;10.35;4.25;;;;;;;;;;5055461;28;20132;-52
2021/10/25 09:26:53;;;;;;;12.55;4.93;;;;;;;;;;5053017;28;20036;-52
2021/10/25 09:29:23;;;;;;;12.23;5.15;;;;;;;;;;5036493;28;20489;-52
2021/10/25 09:31:53;;;;;;;16.67;7.45;;;;;;;;;;5035705;28;20061;-52
2021/10/25 09:34:22;;;;;;;14.02;6.30;;;;;;;;;;5035266;28;20447;-52
2021/10/25 09:36:53;;;;;;;15.25;7.65;;;;;;;;;;5036188;28;20028;-52
2021/10/25 09:49:56;;;;;;;10.93;5.22;;;;;;;;;;5036241;28;20032;-52
2021/10/25 09:52:40;;;;;;;12.77;6.35;;;;;;;;;;5035805;28;20036;-52
2021/10/25 09:55:17;;;;;;;13.50;5.07;;;;;;;;;;5034745;28;20030;-52
2021/10/25 10:00:13;;;;;;;10.10;5.53;;;;;;;;;;5035984;28;20034;-52
2021/10/25 10:02:40;;;;;;;9.25;4.68;;;;;;;;;;5035495;28;20051;-52
2021/10/25 10:05:06;;;;;;;9.63;4.97;;;;;;;;;;5034829;28;20092;-52
2021/10/25 10:07:35;;;;;;;11.77;5.32;;;;;;;;;;5035221;28;20045;-52
2021/10/25 10:10:02;;;;;;;8.43;5.25;;;;;;;;;;5034723;28;20024;-52
2021/10/25 10:12:28;;;;;;;12.13;5.78;;;;;;;;;;5035629;28;20029;-52
2021/10/25 10:14:57;;;;;;;15.75;7.00;;;;;;;;;;5034775;28;20490;-52
2021/10/25 10:17:34;;;;;;;13.73;6.32;;;;;;;;;;5035248;28;20156;-52
2021/10/25 10:20:03;;;;;;;18.13;6.70;;;;;;;;;;5035185;28;20038;-52
2021/10/25 10:22:31;;;;;;;12.73;5.93;;;;;;;;;;5035780;28;20033;-52
2021/10/25 10:24:57;;;;;;;13.20;6.03;;;;;;;;;;5034817;28;20049;-52
2021/10/25 10:27:23;;;;;;;16.35;7.60;;;;;;;;;;5034935;28;20037;-52
2021/10/25 10:29:54;;;;;;;26.52;7.82;;;;;;;;;;5034857;28;20099;-52
2021/10/25 10:32:21;;;;;;;14.50;7.60;;;;;;;;;;5034678;28;20483;-52
2021/10/25 10:34:48;;;;;;;15.57;6.72;;;;;;;;;;5034177;28;20039;-52
2021/10/25 10:37:34;;;;;;;18.60;7.43;;;;;;;;;;5035204;28;20045;-52
2021/10/25 10:40:18;;;;;;;22.70;7.90;;;;;;;;;;5034748;28;20030;-52
2021/10/25 10:42:52;;;;;;;17.88;6.68;;;;;;;;;;5034566;28;20022;-52
2021/10/25 10:45:19;;;;;;;11.63;5.82;;;;;;;;;;5034153;28;20036;-53
2021/10/25 10:47:55;;;;;;;12.55;5.38;;;;;;;;;;5034745;28;20064;-52
2021/10/25 10:50:27;;;;;;;17.30;6.32;;;;;;;;;;5034988;28;20023;-52
2021/10/25 10:53:10;;;;;;;15.80;7.22;;;;;;;;;;5034659;28;20463;-52
2021/10/25 10:55:39;;;;;;;22.50;9.68;;;;;;;;;;5033698;28;20053;-52
2021/10/25 11:00:40;;;;;;;29.95;9.63;;;;;;;;;;5034644;28;20410;-52
2021/10/25 11:03:09;;;;;;;18.20;7.82;;;;;;;;;;5034450;28;20470;-52
2021/10/25 11:05:40;;;;;;;18.88;6.43;;;;;;;;;;5033363;28;20025;-52
2021/10/25 11:08:16;;;;;;;17.63;7.75;;;;;;;;;;5034548;28;20044;-52
2021/10/25 11:10:42;;;;;;;13.38;5.95;;;;;;;;;;5034705;28;20073;-52
2021/10/25 11:13:15;;;;;;;16.90;7.78;;;;;;;;;;5034222;28;20022;-52
2021/10/25 11:15:52;;;;;;;15.63;6.97;;;;;;;;;;5033658;28;20051;-52
2021/10/25 11:18:18;;;;;;;19.60;8.40;;;;;;;;;;5034320;28;20029;-52
2021/10/25 11:20:44;;;;;;;12.02;6.00;;;;;;;;;;5034168;28;20044;-52
2021/10/25 11:23:10;;;;;;;10.52;6.35;;;;;;;;;;5034177;28;20448;-53
2021/10/25 11:25:44;;;;;;;13.02;6.82;;;;;;;;;;5033281;28;20454;-53
2021/10/25 11:28:20;;;;;;;17.85;7.45;;;;;;;;;;5034162;28;20041;-52
2021/10/25 11:30:47;;;;;;;21.50;6.82;;;;;;;;;;5033455;28;20029;-52
2021/10/25 11:33:16;;;;;;;18.35;9.07;;;;;;;;;;5034072;28;20036;-52
2021/10/25 11:35:46;;;;;;;16.42;7.60;;;;;;;;;;5033246;28;20037;-52
2021/10/25 11:38:13;;;;;;;16.25;8.30;;;;;;;;;;5033653;28;20045;-52
2021/10/25 11:40:39;;;;;;;24.02;8.82;;;;;;;;;;5033793;28;20041;-52
2021/10/25 11:43:05;;;;;;;20.38;7.88;;;;;;;;;;5033631;28;20030;-52
2021/10/25 11:45:33;;;;;;;15.82;7.45;;;;;;;;;;5033304;28;20062;-52
2021/10/25 11:47:59;;;;;;;15.43;7.85;;;;;;;;;;5033835;28;20041;-53
2021/10/25 11:50:26;;;;;;;15.63;7.40;;;;;;;;;;5033557;28;20025;-52
2021/10/25 11:52:58;;;;;;;18.15;8.85;;;;;;;;;;5033529;28;20108;-52
2021/10/25 11:55:35;;;;;;;31.88;9.20;;;;;;;;;;5032997;28;20029;-52
2021/10/25 11:58:01;;;;;;;13.55;6.28;;;;;;;;;;5033350;28;20505;-53
2021/10/25 12:00:30;;;;;;;14.65;7.07;;;;;;;;;;5033719;28;20029;-52
2021/10/25 12:02:56;;;;;;;17.15;7.55;;;;;;;;;;5033058;28;20026;-52
2021/10/25 12:05:24;;;;;;;14.85;8.35;;;;;;;;;;5033036;28;20116;-52
2021/10/25 12:07:51;;;;;;;19.52;8.10;;;;;;;;;;5032985;28;20056;-52
2021/10/25 12:10:18;;;;;;;15.90;7.80;;;;;;;;;;5033425;28;20017;-52
2021/10/25 12:12:44;;;;;;;18.67;8.55;;;;;;;;;;5033362;28;20030;-52
2021/10/25 12:15:18;;;;;;;20.65;8.07;;;;;;;;;;5032668;28;20030;-52
2021/10/25 12:17:45;;;;;;;16.30;7.72;;;;;;;;;;5032780;28;20410;-52
2021/10/25 12:20:12;;;;;;;23.35;9.63;;;;;;;;;;5033339;28;20033;-53
2021/10/25 12:22:41;;;;;;;21.15;9.85;;;;;;;;;;5032591;28;20036;-52
2021/10/25 12:25:08;;;;;;;16.23;7.70;;;;;;;;;;5032581;28;20160;-52
2021/10/25 12:27:39;;;;;;;21.15;8.63;;;;;;;;;;5033098;28;20383;-52
2021/10/25 12:30:15;;;;;;;14.52;6.72;;;;;;;;;;5032989;28;20359;-52
2021/10/25 12:32:50;;;;;;;18.20;7.90;;;;;;;;;;5032641;28;20030;-52
2021/10/25 12:35:16;;;;;;;19.80;7.68;;;;;;;;;;5031863;28;20367;-52
2021/10/25 12:37:42;;;;;;;13.77;6.80;;;;;;;;;;5032841;28;20028;-53
2021/10/25 12:40:16;;;;;;;19.88;8.40;;;;;;;;;;5033044;28;20077;-52
2021/10/25 12:42:42;;;;;;;20.33;7.18;;;;;;;;;;5033100;28;20049;-52
2021/10/25 12:45:19;;;;;;;20.98;8.50;;;;;;;;;;5032361;28;20024;-52
2021/10/25 12:47:46;;;;;;;14.65;7.85;;;;;;;;;;5032266;28;20374;-52
2021/10/25 12:50:13;;;;;;;26.88;10.32;;;;;;;;;;5032947;28;20390;-52
2021/10/25 12:52:41;;;;;;;17.33;8.30;;;;;;;;;;5032621;28;20083;-52
2021/10/25 12:55:08;;;;;;;18.42;7.72;;;;;;;;;;5032388;28;20032;-52
2021/10/25 12:57:35;;;;;;;15.57;7.60;;;;;;;;;;5032754;28;20106;-52
2021/10/25 13:00:06;;;;;;;17.88;7.28;;;;;;;;;;5032619;28;20510;-52
2021/10/25 13:02:39;;;;;;;18.17;7.65;;;;;;;;;;5032677;28;20083;-52
2021/10/25 13:05:08;;;;;;;15.68;7.13;;;;;;;;;;5031973;28;20021;-52
2021/10/25 13:07:34;;;;;;;21.25;8.98;;;;;;;;;;5032777;28;20060;-52
2021/10/25 13:10:00;;;;;;;18.75;8.45;;;;;;;;;;5032736;28;20435;-52
2021/10/25 13:12:26;;;;;;;19.90;8.98;;;;;;;;;;5032530;28;20030;-52
2021/10/25 13:14:52;;;;;;;19.13;9.40;;;;;;;;;;5031430;28;20100;-52
2021/10/25 13:17:18;;;;;;;22.40;9.77;;;;;;;;;;5032743;28;20112;-52
2021/10/25 13:19:45;;;;;;;20.90;9.13;;;;;;;;;;5032731;28;20022;-53
2021/10/25 13:22:11;;;;;;;20.20;8.82;;;;;;;;;;5032595;28;20447;-52
2021/10/25 13:24:37;;;;;;;25.75;7.28;;;;;;;;;;5031897;28;20087;-52
2021/10/25 13:27:05;;;;;;;13.85;7.80;;;;;;;;;;5032390;28;20116;-52
2021/10/25 13:29:31;;;;;;;13.60;7.47;;;;;;;;;;5032348;28;20080;-53
2021/10/25 13:31:57;;;;;;;18.02;6.78;;;;;;;;;;5032542;28;20355;-52
2021/10/25 13:34:23;;;;;;;14.07;6.63;;;;;;;;;;5031437;28;20029;-52
2021/10/25 13:36:50;;;;;;;12.43;7.05;;;;;;;;;;5032773;28;20052;-52
2021/10/25 13:39:18;;;;;;;13.50;7.20;;;;;;;;;;5032272;28;20092;-52
2021/10/25 13:41:44;;;;;;;16.92;7.22;;;;;;;;;;5032129;28;20029;-52
2021/10/25 13:44:11;;;;;;;17.35;8.10;;;;;;;;;;5031470;28;20025;-53
2021/10/25 13:46:37;;;;;;;12.23;6.68;;;;;;;;;;5035537;28;20439;-53
2021/10/25 13:49:04;;;;;;;15.23;7.70;;;;;;;;;;5036088;28;20069;-52
2021/10/25 13:51:31;;;;;;;15.10;7.50;;;;;;;;;;5035953;28;20072;-52
2021/10/25 13:53:57;;;;;;;20.23;7.55;;;;;;;;;;5034832;28;20036;-52
2021/10/25 13:56:23;;;;;;;20.42;8.77;;;;;;;;;;5035791;28;20032;-52
2021/10/25 13:58:49;;;;;;;19.95;7.80;;;;;;;;;;5035753;28;20079;-52
2021/10/25 14:01:15;;;;;;;24.70;8.98;;;;;;;;;;5035862;28;20477;-52
2021/10/25 14:03:43;;;;;;;17.15;7.07;;;;;;;;;;5034638;28;20036;-52
2021/10/25 14:06:10;;;;;;;13.77;6.43;;;;;;;;;;5035773;28;20347;-52
2021/10/25 14:08:36;;;;;;;13.38;6.72;;;;;;;;;;5035669;28;20041;-52
2021/10/25 14:11:03;;;;;;;19.63;7.97;;;;;;;;;;5035357;28;20025;-52
2021/10/25 14:13:31;;;;;;;14.57;6.70;;;;;;;;;;5034828;28;20056;-52
2021/10/25 14:18:42;;;;;;;18.85;7.80;;;;;;;;;;5035686;28;20039;-53
2021/10/25 14:21:08;;;;;;;21.20;9.02;;;;;;;;;;5035375;28;20022;-52
2021/10/25 14:23:35;;;;;;;14.45;7.45;;;;;;;;;;5034241;28;20033;-52
2021/10/25 14:26:01;;;;;;;14.88;7.65;;;;;;;;;;5035589;28;20021;-52
2021/10/25 14:28:29;;;;;;;12.70;6.25;;;;;;;;;;5035247;28;20466;-52
2021/10/25 14:30:56;;;;;;;13.18;6.32;;;;;;;;;;5035096;28;20486;-52
2021/10/25 14:33:22;;;;;;;17.23;7.93;;;;;;;;;;5034946;28;20060;-52
2021/10/25 14:35:48;;;;;;;14.55;7.43;;;;;;;;;;5034702;28;20021;-52
2021/10/25 14:38:31;;;;;;;16.30;7.82;;;;;;;;;;5034604;28;20028;-52
2021/10/25 14:43:32;;;;;;;24.23;7.75;;;;;;;;;;5035148;28;20037;-52
2021/10/25 14:46:06;;;;;;;13.95;6.30;;;;;;;;;;5034912;28;20021;-52
2021/10/25 14:48:42;;;;;;;15.82;6.78;;;;;;;;;;5034655;28;20045;-52
2021/10/25 14:54:03;;;;;;;15.77;6.40;;;;;;;;;;5034172;28;20040;-53
2021/10/25 14:56:29;;;;;;;18.30;7.53;;;;;;;;;;5034303;28;20160;-52
2021/10/25 14:58:55;;;;;;;8.73;5.65;;;;;;;;;;5034476;28;20036;-52
2021/10/25 15:01:21;;;;;;;13.02;7.32;;;;;;;;;;5034724;28;20036;-52
2021/10/25 15:03:48;;;;;;;14.52;6.68;;;;;;;;;;5033824;28;20036;-53
2021/10/25 15:06:14;;;;;;;15.85;7.43;;;;;;;;;;5034810;28;20461;-52
2021/10/25 15:08:41;;;;;;;16.40;8.30;;;;;;;;;;5034266;28;20061;-52
2021/10/25 15:11:07;;;;;;;18.85;7.50;;;;;;;;;;5034377;28;20071;-52
2021/10/25 15:13:33;;;;;;;24.45;11.93;;;;;;;;;;5033856;28;20030;-52
2021/10/25 15:15:59;;;;;;;18.83;9.20;;;;;;;;;;5034418;28;20501;-52
2021/10/25 15:18:25;;;;;;;19.35;7.63;;;;;;;;;;5033691;28;20033;-52
2021/10/25 15:20:51;;;;;;;19.02;8.32;;;;;;;;;;5054085;28;20025;-52
2021/10/25 15:23:18;;;;;;;21.58;8.45;;;;;;;;;;5054166;28;20033;-52
2021/10/25 15:25:45;;;;;;;18.65;8.00;;;;;;;;;;5053430;28;20035;-52
2021/10/25 15:28:14;;;;;;;16.15;7.97;;;;;;;;;;5053883;28;20088;-52
2021/10/25 15:30:40;;;;;;;17.65;8.48;;;;;;;;;;5039748;28;20038;-53
2021/10/25 15:33:06;;;;;;;20.38;7.95;;;;;;;;;;5032823;28;20033;-53
2021/10/25 15:35:32;;;;;;;15.20;6.95;;;;;;;;;;5033469;28;20049;-53
2021/10/25 15:37:59;;;;;;;14.75;7.75;;;;;;;;;;5033916;28;20484;-53
2021/10/25 15:40:29;;;;;;;13.98;7.70;;;;;;;;;;5033994;28;20111;-54
2021/10/25 15:42:55;;;;;;;;;;;;;;;;;;5033775;28;20083;-53
2021/10/25 15:45:21;;;;;;;14.68;7.07;;;;;;;;;;5033305;28;19943;-53
2021/10/25 15:47:47;;;;;;;15.98;7.32;;;;;;;;;;5033876;28;20558;-53
2021/10/25 15:50:13;;;;;;;17.42;9.07;;;;;;;;;;5033183;28;20053;-53
2021/10/25 15:52:39;;;;;;;13.85;8.18;;;;;;;;;;5033942;28;20083;-54
2021/10/25 15:55:06;;;;;;;18.95;8.50;;;;;;;;;;5032887;28;20024;-53
2021/10/25 15:57:34;;;;;;;17.55;7.95;;;;;;;;;;5031991;28;20352;-53
2021/10/25 16:00:00;;;;;;;17.10;7.47;;;;;;;;;;5033782;28;20026;-53
2021/10/25 16:02:26;;;;;;;15.20;7.07;;;;;;;;;;5033220;28;20033;-53
2021/10/25 16:04:52;;;;;;;17.88;7.05;;;;;;;;;;5032407;28;20497;-53
2021/10/25 16:07:20;;;;;;;16.23;7.72;;;;;;;;;;5032680;28;20034;-53
2021/10/25 16:09:46;;;;;;;20.33;7.43;;;;;;;;;;5042948;28;20032;-53
2021/10/25 16:12:16;;;;;;;19.73;7.78;;;;;;;;;;5041843;28;20104;-53
2021/10/25 16:14:43;;;;;;;13.70;7.40;;;;;;;;;;5041075;28;20033;-53
2021/10/25 16:17:11;;;;;;;16.75;8.18;;;;;;;;;;5042582;28;20267;-53
2021/10/25 16:19:37;;;;;;;18.80;9.07;;;;;;;;;;5043885;28;20021;-53
2021/10/25 16:22:04;;;;;;;15.00;8.43;;;;;;;;;;5042106;28;20028;-53
2021/10/25 16:24:30;;;;;;;22.83;9.95;;;;;;;;;;5041318;28;20032;-53
2021/10/25 16:26:56;;;;;;;22.65;9.05;;;;;;;;;;5043662;28;20033;-53
2021/10/25 16:29:22;;;;;;;19.70;8.95;;;;;;;;;;5041803;28;20355;-53
2021/10/25 16:31:48;;;;;;;20.13;10.90;;;;;;;;;;5042305;28;20025;-53
2021/10/25 16:34:14;;;;;;;22.60;8.90;;;;;;;;;;5042321;28;20155;-53
2021/10/25 16:36:41;;;;;;;18.40;9.00;;;;;;;;;;5044306;28;20025;-53
2021/10/25 16:39:08;;;;;;;18.02;8.50;;;;;;;;;;5052741;28;20108;-53
2021/10/25 16:41:34;;;;;;;19.50;9.40;;;;;;;;;;5052976;28;20032;-53
2021/10/25 16:44:01;;;;;;;31.73;9.30;;;;;;;;;;5052183;28;20017;-53
2021/10/25 16:46:27;;;;;;;18.55;8.95;;;;;;;;;;5052913;28;20033;-53